createdAt,value
2023-04-28T00:01:14.082Z,77584.28
2023-04-28T00:03:42.755Z,77590.38
2023-04-28T00:06:11.346Z,77586.31
2023-04-28T00:08:38.862Z,77594.44
2023-04-28T00:11:10.453Z,77598.47
2023-04-28T00:13:38.710Z,77602.53
2023-04-28T00:16:06.044Z,77610.66
2023-04-28T00:18:33.786Z,77610.66
2023-04-28T00:21:01.720Z,77614.69
2023-04-28T00:23:29.150Z,77614.69
2023-04-28T00:25:57.538Z,77626.88
2023-04-28T00:30:55.709Z,77628.91
2023-04-28T00:33:23.040Z,77622.81
2023-04-28T00:35:50.151Z,77626.88
2023-04-28T00:38:17.819Z,77634.97
2023-04-28T00:40:44.626Z,77630.94
2023-04-28T00:43:11.962Z,77634.97
2023-04-28T00:45:38.938Z,77634.97
2023-04-28T00:48:08.592Z,77643.09
2023-04-28T00:50:36.608Z,77651.19
2023-04-28T00:53:04.918Z,77651.19
2023-04-28T00:55:35.240Z,77655.25
2023-04-28T00:58:03.103Z,77659.31
2023-04-28T01:00:30.030Z,77671.47
2023-04-28T01:02:58.309Z,77667.44
2023-04-28T01:05:27.107Z,77667.44
2023-04-28T01:07:54.471Z,77679.59
2023-04-28T01:10:21.863Z,77685.69
2023-04-28T01:12:49.658Z,77691.75
2023-04-28T01:15:19.124Z,77695.81
2023-04-28T01:17:48.144Z,77699.88
2023-04-28T01:20:15.589Z,77703.94
2023-04-28T01:22:43.189Z,77707.97
2023-04-28T01:25:11.168Z,77712.03
2023-04-28T01:27:38.301Z,77716.09
2023-04-28T01:30:06.974Z,77712.03
2023-04-28T01:32:34.381Z,77712.03
2023-04-28T01:35:02.918Z,77720.16
2023-04-28T01:37:30.616Z,77724.19
2023-04-28T01:39:57.490Z,77732.31
2023-04-28T01:42:25.800Z,77736.38
2023-04-28T01:44:53.099Z,77740.44
2023-04-28T01:47:20.669Z,77740.44
2023-04-28T01:49:48.479Z,77748.53
2023-04-28T01:52:15.814Z,77750.56
2023-04-28T01:54:43.098Z,77752.59
2023-04-28T01:57:10.555Z,77754.63
2023-04-28T01:59:38.128Z,77766.78
2023-04-28T02:02:06.829Z,77770.84
2023-04-28T02:04:34.102Z,77768.81
2023-04-28T02:07:01.471Z,77776.94
2023-04-28T02:09:28.418Z,77785.03
2023-04-28T02:12:00.285Z,77785.03
2023-04-28T02:14:27.885Z,77785.03
2023-04-28T02:16:55.012Z,77783.00
2023-04-28T02:19:22.239Z,77785.03
2023-04-28T02:21:49.298Z,77787.06
2023-04-28T02:24:16.415Z,77789.09
2023-04-28T02:26:44.125Z,77793.16
2023-04-28T02:29:11.055Z,77797.19
2023-04-28T02:31:38.803Z,77795.19
2023-04-28T02:34:05.848Z,77801.25
2023-04-28T02:36:33.854Z,77809.38
2023-04-28T02:39:01.461Z,77817.47
2023-04-28T02:41:31.170Z,77817.47
2023-04-28T02:43:58.181Z,77823.56
2023-04-28T02:46:25.837Z,77821.53
2023-04-28T02:48:52.731Z,77829.66
2023-04-28T02:51:20.288Z,77835.72
2023-04-28T02:53:47.186Z,77833.69
2023-04-28T02:56:14.817Z,77837.75
2023-04-28T02:58:41.754Z,77845.88
2023-04-28T03:01:09.149Z,77849.94
2023-04-28T03:03:36.363Z,77851.97
2023-04-28T03:06:04.192Z,77862.09
2023-04-28T03:08:31.250Z,77872.22
2023-04-28T03:10:58.637Z,77862.09
2023-04-28T03:13:25.760Z,77860.06
2023-04-28T03:15:53.303Z,77849.94
2023-04-28T03:18:20.322Z,77849.94
2023-04-28T03:20:48.597Z,77849.94
2023-04-28T03:23:15.743Z,77847.91
2023-04-28T03:25:43.171Z,77849.94
2023-04-28T03:28:10.844Z,77845.88
2023-04-28T03:30:38.367Z,77841.81
2023-04-28T03:33:05.571Z,77841.81
2023-04-28T03:35:33.236Z,77845.88
2023-04-28T03:38:00.134Z,77841.81
2023-04-28T03:40:27.986Z,77833.69
2023-04-28T03:43:15.105Z,77817.47
2023-04-28T03:46:05.037Z,77813.44
2023-04-28T03:48:33.053Z,77809.38
2023-04-28T03:51:00.385Z,77789.09
2023-04-28T03:53:27.540Z,77780.97
2023-04-28T03:55:55.171Z,77764.75
2023-04-28T03:58:22.294Z,77752.59
2023-04-28T04:00:50.486Z,77746.50
2023-04-28T04:03:17.743Z,77738.41
2023-04-28T04:05:45.889Z,77732.31
2023-04-28T04:08:13.478Z,77732.31
2023-04-28T04:10:40.710Z,77718.13
2023-04-28T04:13:08.163Z,77716.09
2023-04-28T04:15:36.074Z,77712.03
2023-04-28T04:18:05.564Z,77701.91
2023-04-28T04:20:50.593Z,77695.81
2023-04-28T04:23:18.145Z,77691.75
2023-04-28T04:25:46.065Z,77683.66
2023-04-28T04:28:13.343Z,77679.59
2023-04-28T04:30:40.781Z,77671.47
2023-04-28T04:33:08.346Z,77659.31
2023-04-28T04:35:35.893Z,77647.16
2023-04-28T04:38:03.733Z,77630.94
2023-04-28T04:40:31.153Z,77622.81
2023-04-28T04:42:59.480Z,77606.59
2023-04-28T04:45:28.605Z,77592.41
2023-04-28T04:47:56.373Z,77578.22
2023-04-28T04:50:24.200Z,77559.97
2023-04-28T04:52:51.341Z,77549.81
2023-04-28T04:55:19.283Z,77545.75
2023-04-28T04:57:46.509Z,77533.59
2023-04-28T05:00:22.950Z,77533.59
2023-04-28T05:02:50.105Z,77519.41
2023-04-28T05:05:21.832Z,77513.31
2023-04-28T05:08:02.590Z,77513.31
2023-04-28T05:10:30.107Z,77503.19
2023-04-28T05:12:57.129Z,77489.00
2023-04-28T05:15:24.855Z,77489.00
2023-04-28T05:18:17.928Z,77491.03
2023-04-28T05:20:46.079Z,77501.16
2023-04-28T05:23:14.671Z,77509.25
2023-04-28T05:25:42.564Z,77491.03
2023-04-28T05:28:10.723Z,77489.00
2023-04-28T05:30:38.036Z,77491.03
2023-04-28T05:33:05.411Z,77472.78
2023-04-28T05:35:32.762Z,77472.78
2023-04-28T05:38:00.171Z,77472.78
2023-04-28T05:40:28.295Z,77464.66
2023-04-28T05:42:56.444Z,77468.72
2023-04-28T05:45:23.873Z,77464.66
2023-04-28T05:47:51.095Z,77456.53
2023-04-28T05:50:19.000Z,77452.50
2023-04-28T05:52:45.918Z,77440.31
2023-04-28T05:55:14.439Z,77432.22
2023-04-28T05:57:52.510Z,77420.06
2023-04-28T06:00:22.292Z,77403.84
2023-04-28T06:02:52.034Z,77391.66
2023-04-28T06:05:19.689Z,77373.41
2023-04-28T06:07:49.972Z,77363.28
2023-04-28T06:10:19.064Z,77359.22
2023-04-28T06:12:46.124Z,77345.03
2023-04-28T06:15:14.001Z,77347.06
2023-04-28T06:17:41.662Z,77334.91
2023-04-28T06:20:11.255Z,77326.78
2023-04-28T06:22:38.699Z,77302.44
2023-04-28T06:25:08.139Z,77286.22
2023-04-28T06:27:46.203Z,77270.00
2023-04-28T06:30:19.992Z,77270.00
2023-04-28T06:32:47.685Z,77261.91
2023-04-28T06:35:16.779Z,77253.78
2023-04-28T06:37:44.523Z,77229.47
2023-04-28T06:40:11.890Z,77217.28
2023-04-28T06:42:42.917Z,77219.31
2023-04-28T06:45:13.210Z,77209.19
2023-04-28T06:47:41.020Z,77197.03
2023-04-28T06:50:10.389Z,77184.84
2023-04-28T06:52:39.700Z,77184.84
2023-04-28T06:55:11.733Z,77172.69
2023-04-28T06:57:39.044Z,77156.47
2023-04-28T07:00:06.960Z,77146.34
2023-04-28T07:02:35.335Z,77140.25
2023-04-28T07:05:03.932Z,77136.19
2023-04-28T07:07:31.888Z,77132.16
2023-04-28T07:10:00.505Z,77119.97
2023-04-28T07:12:27.846Z,77115.94
2023-04-28T07:14:55.992Z,77103.75
2023-04-28T07:17:23.165Z,77099.72
2023-04-28T07:19:51.033Z,77099.72
2023-04-28T07:22:18.412Z,77093.63
2023-04-28T07:24:45.906Z,77075.38
2023-04-28T07:27:13.177Z,77063.22
2023-04-28T07:29:40.379Z,77055.09
2023-04-28T07:32:10.715Z,77044.97
2023-04-28T07:34:38.574Z,77057.13
2023-04-28T07:37:05.893Z,77051.06
2023-04-28T07:39:36.777Z,77042.94
2023-04-28T07:42:04.172Z,77034.84
2023-04-28T07:44:31.726Z,77026.72
2023-04-28T07:47:00.864Z,77002.41
2023-04-28T07:49:31.890Z,76982.13
2023-04-28T07:51:59.433Z,76949.69
2023-04-28T07:54:26.665Z,76925.34
2023-04-28T07:56:54.268Z,76905.09
2023-04-28T07:59:21.395Z,76905.09
2023-04-28T08:01:48.916Z,76896.97
2023-04-28T08:04:17.862Z,76880.75
2023-04-28T08:06:45.840Z,76840.22
2023-04-28T08:09:13.149Z,76828.03
2023-04-28T08:11:40.197Z,76803.72
2023-04-28T08:14:07.953Z,76787.50
2023-04-28T08:16:38.484Z,76787.50
2023-04-28T08:19:06.209Z,76803.72
2023-04-28T08:21:34.273Z,76815.88
2023-04-28T08:24:02.187Z,76819.94
2023-04-28T08:26:29.376Z,76775.34
2023-04-28T08:28:57.064Z,76744.94
2023-04-28T08:31:24.355Z,76751.00
2023-04-28T08:33:53.165Z,76791.56
2023-04-28T08:36:21.304Z,76811.81
2023-04-28T08:38:48.812Z,76797.63
2023-04-28T08:41:16.960Z,76755.06
2023-04-28T08:43:45.696Z,76734.78
2023-04-28T08:46:14.974Z,76714.53
2023-04-28T08:48:47.584Z,76714.53
2023-04-28T08:51:17.201Z,76702.34
2023-04-28T08:54:11.762Z,76702.34
2023-04-28T08:56:39.307Z,76730.75
2023-04-28T08:59:07.769Z,76771.28
2023-04-28T09:01:34.849Z,76797.63
2023-04-28T09:04:04.246Z,76815.88
2023-04-28T09:06:40.679Z,76830.06
2023-04-28T09:09:34.159Z,76836.16
2023-04-28T09:12:05.247Z,76844.25
2023-04-28T09:14:37.428Z,76860.47
2023-04-28T09:17:13.042Z,76834.13
2023-04-28T09:19:43.328Z,76819.94
2023-04-28T09:22:21.797Z,76824.00
2023-04-28T09:24:53.284Z,76819.94
2023-04-28T09:27:27.486Z,76836.16
2023-04-28T09:29:55.103Z,76836.16
2023-04-28T09:32:23.650Z,76836.16
2023-04-28T09:34:57.343Z,76807.78
2023-04-28T09:37:27.534Z,76759.13
2023-04-28T09:39:55.475Z,76718.56
2023-04-28T09:42:37.498Z,76690.19
2023-04-28T09:45:10.208Z,76686.13
2023-04-28T09:47:46.838Z,76694.25
2023-04-28T09:50:17.499Z,76682.09
2023-04-28T09:52:56.933Z,76682.09
2023-04-28T09:55:25.279Z,76686.13
2023-04-28T09:57:54.866Z,76653.72
2023-04-28T10:00:23.139Z,76661.81
2023-04-28T10:02:51.962Z,76649.66
2023-04-28T10:05:23.221Z,76609.09
2023-04-28T10:07:51.537Z,76568.56
2023-04-28T10:10:19.443Z,76548.31
2023-04-28T10:12:47.233Z,76528.03
2023-04-28T10:15:14.549Z,76507.75
2023-04-28T10:17:41.902Z,76511.81
2023-04-28T10:20:11.135Z,76503.69
2023-04-28T10:22:56.261Z,76491.53
2023-04-28T10:25:35.580Z,76475.31
2023-04-28T10:28:07.927Z,76459.09
2023-04-28T10:30:36.763Z,76430.72
2023-04-28T10:33:16.204Z,76426.69
2023-04-28T10:35:47.955Z,76446.94
2023-04-28T10:38:21.501Z,76483.44
2023-04-28T10:40:51.056Z,76501.69
2023-04-28T10:43:33.237Z,76501.69
2023-04-28T10:46:04.074Z,76487.50
2023-04-28T10:48:34.604Z,76463.16
2023-04-28T10:51:05.598Z,76430.72
2023-04-28T10:53:54.322Z,76390.19
2023-04-28T10:56:25.399Z,76376.00
2023-04-28T10:58:53.762Z,76349.66
2023-04-28T11:01:25.269Z,76357.75
2023-04-28T11:04:08.287Z,76343.56
2023-04-28T11:06:37.489Z,76309.13
2023-04-28T11:09:33.517Z,76298.97
2023-04-28T11:12:01.145Z,76284.78
2023-04-28T11:14:35.117Z,76260.47
2023-04-28T11:17:11.495Z,76230.06
2023-04-28T11:19:44.386Z,76248.31
2023-04-28T11:22:20.335Z,76258.44
2023-04-28T11:24:59.075Z,76232.09
2023-04-28T11:27:27.922Z,76203.72
2023-04-28T11:29:54.904Z,76185.47
2023-04-28T11:32:28.664Z,76191.56
2023-04-28T11:34:56.082Z,76203.72
2023-04-28T11:37:23.708Z,76236.16
2023-04-28T11:39:51.515Z,76284.78
2023-04-28T11:42:19.004Z,76319.25
2023-04-28T11:44:52.094Z,76349.66
2023-04-28T11:47:31.563Z,76365.88
2023-04-28T11:49:59.285Z,76406.41
2023-04-28T11:52:27.505Z,76410.47
2023-04-28T11:54:56.776Z,76408.44
2023-04-28T11:57:24.268Z,76410.47
2023-04-28T11:59:51.710Z,76418.56
2023-04-28T12:02:28.544Z,76402.34
2023-04-28T12:04:57.136Z,76369.91
2023-04-28T12:07:25.491Z,76349.66
2023-04-28T12:10:13.423Z,76335.47
2023-04-28T12:12:50.797Z,76313.16
2023-04-28T12:15:21.049Z,76288.84
2023-04-28T12:17:50.922Z,76296.94
2023-04-28T12:20:38.699Z,76329.38
2023-04-28T12:23:08.042Z,76305.06
2023-04-28T12:25:48.127Z,76288.84
2023-04-28T12:28:16.537Z,76272.63
2023-04-28T12:30:44.091Z,76244.25
2023-04-28T12:33:25.756Z,76236.16
2023-04-28T12:35:55.498Z,76199.66
2023-04-28T12:38:23.847Z,76175.34
2023-04-28T12:40:51.119Z,76203.72
2023-04-28T12:43:19.290Z,76230.06
2023-04-28T12:45:46.825Z,76238.16
2023-04-28T12:48:16.705Z,76230.06
2023-04-28T12:50:44.340Z,76209.78
2023-04-28T12:53:12.180Z,76203.72
2023-04-28T12:55:40.687Z,76195.59
2023-04-28T12:58:08.027Z,76179.38
2023-04-28T13:00:35.772Z,76189.53
2023-04-28T13:03:03.191Z,76232.09
2023-04-28T13:05:32.256Z,76252.34
2023-04-28T13:08:00.755Z,76252.34
2023-04-28T13:10:29.481Z,76272.63
2023-04-28T13:12:58.158Z,76276.69
2023-04-28T13:15:25.778Z,76272.63
2023-04-28T13:17:52.937Z,76252.34
2023-04-28T13:20:20.070Z,76236.16
2023-04-28T13:22:48.045Z,76236.16
2023-04-28T13:25:15.912Z,76244.25
2023-04-28T13:27:43.705Z,76252.34
2023-04-28T13:30:11.996Z,76219.94
2023-04-28T13:32:40.272Z,76183.44
2023-04-28T13:35:09.241Z,76161.16
2023-04-28T13:37:42.611Z,76151.00
2023-04-28T13:40:11.801Z,76175.34
2023-04-28T13:42:39.600Z,76219.94
2023-04-28T13:45:07.259Z,76183.44
2023-04-28T13:47:35.079Z,76163.19
2023-04-28T13:50:02.608Z,76134.78
2023-04-28T13:52:30.502Z,76106.41
2023-04-28T13:54:57.980Z,76088.19
2023-04-28T13:57:25.673Z,76098.31
2023-04-28T13:59:53.308Z,76104.41
2023-04-28T14:02:20.827Z,76082.09
2023-04-28T14:04:49.160Z,76041.56
2023-04-28T14:07:17.063Z,76009.13
2023-04-28T14:09:44.563Z,75990.91
2023-04-28T14:12:13.979Z,75992.94
2023-04-28T14:14:41.612Z,76001.03
2023-04-28T14:17:10.471Z,75999.00
2023-04-28T14:19:37.906Z,75996.97
2023-04-28T14:22:05.621Z,76005.09
2023-04-28T14:24:32.971Z,76041.56
2023-04-28T14:27:00.551Z,76057.78
2023-04-28T14:29:27.721Z,76053.72
2023-04-28T14:31:55.262Z,76041.56
2023-04-28T14:34:22.839Z,75999.00
2023-04-28T14:36:51.094Z,75996.97
2023-04-28T14:39:18.719Z,75996.97
2023-04-28T14:41:46.427Z,76013.19
2023-04-28T14:44:13.654Z,76021.31
2023-04-28T14:46:41.424Z,76009.13
2023-04-28T14:49:09.537Z,76003.06
2023-04-28T14:51:36.877Z,75984.81
2023-04-28T14:54:04.521Z,75984.81
2023-04-28T14:56:33.350Z,75972.66
2023-04-28T14:59:01.150Z,75968.59
2023-04-28T15:01:29.218Z,75972.66
2023-04-28T15:03:56.290Z,75932.13
2023-04-28T15:06:23.624Z,75893.63
2023-04-28T15:08:50.903Z,75818.63
2023-04-28T15:11:18.751Z,75534.91
2023-04-28T15:13:46.044Z,75218.78
2023-04-28T15:16:13.826Z,74918.91
2023-04-28T15:18:41.065Z,74758.84
2023-04-28T15:21:08.796Z,74639.31
2023-04-28T15:23:36.066Z,74608.94
2023-04-28T15:26:03.699Z,74558.28
2023-04-28T15:28:31.377Z,74469.16
2023-04-28T15:30:58.590Z,74461.03
2023-04-28T15:33:25.825Z,74507.63
2023-04-28T15:35:53.082Z,74805.47
2023-04-28T15:38:20.706Z,75113.44
2023-04-28T15:40:49.941Z,75324.16
2023-04-28T15:43:17.142Z,75466.00
2023-04-28T15:45:47.342Z,75547.06
2023-04-28T15:48:15.484Z,75672.72
2023-04-28T15:50:44.631Z,75721.34
2023-04-28T15:53:11.869Z,75774.03
2023-04-28T15:55:39.375Z,75810.53
2023-04-28T15:58:06.532Z,75865.25
2023-04-28T16:00:34.400Z,75899.69
2023-04-28T16:03:02.025Z,75928.06
2023-04-28T16:05:29.922Z,75940.22
2023-04-28T16:07:57.035Z,75956.44
2023-04-28T16:10:24.560Z,75964.56
2023-04-28T16:12:51.818Z,75996.97
2023-04-28T16:15:19.395Z,76009.13
2023-04-28T16:17:46.424Z,76025.34
2023-04-28T16:20:13.963Z,76051.69
2023-04-28T16:22:41.874Z,76057.78
2023-04-28T16:25:11.747Z,76041.56
2023-04-28T16:27:40.640Z,76021.31
2023-04-28T16:30:09.570Z,75996.97
2023-04-28T16:32:38.529Z,75976.72
2023-04-28T16:35:10.827Z,75972.66
2023-04-28T16:37:41.033Z,75976.72
2023-04-28T16:40:09.593Z,75984.81
2023-04-28T16:42:37.184Z,75988.88
2023-04-28T16:45:05.410Z,75960.50
2023-04-28T16:47:33.526Z,75944.28
2023-04-28T16:50:01.043Z,75907.81
2023-04-28T16:52:28.062Z,75857.13
2023-04-28T16:54:56.074Z,75822.69
2023-04-28T16:57:23.184Z,75867.28
2023-04-28T16:59:51.713Z,75875.38
2023-04-28T17:02:19.207Z,75879.44
2023-04-28T17:04:47.165Z,75915.91
2023-04-28T17:07:14.894Z,75972.66
2023-04-28T17:09:42.577Z,76051.69
2023-04-28T17:12:10.053Z,76110.47
2023-04-28T17:14:38.889Z,76157.09
2023-04-28T17:17:05.992Z,76219.94
2023-04-28T17:19:33.317Z,76248.31
2023-04-28T17:22:00.909Z,76266.53
2023-04-28T17:24:28.586Z,76280.72
2023-04-28T17:26:55.980Z,76301.00
2023-04-28T17:29:24.740Z,76313.16
2023-04-28T17:31:53.761Z,76313.16
2023-04-28T17:34:21.587Z,76321.28
2023-04-28T17:36:48.734Z,76337.50
2023-04-28T17:39:16.792Z,76349.66
2023-04-28T17:41:45.374Z,76365.88
2023-04-28T17:44:13.275Z,76376.00
2023-04-28T17:46:40.699Z,76386.13
2023-04-28T17:49:08.872Z,76406.41
2023-04-28T17:51:37.527Z,76416.53
2023-04-28T17:54:09.719Z,76426.69
2023-04-28T17:56:38.454Z,76434.78
2023-04-28T17:59:06.400Z,76438.84
2023-04-28T18:01:35.249Z,76442.91
2023-04-28T18:04:02.722Z,76463.16
2023-04-28T18:06:30.605Z,76467.22
2023-04-28T18:08:57.999Z,76479.38
2023-04-28T18:11:27.284Z,76487.50
2023-04-28T18:13:54.964Z,76499.66
2023-04-28T18:16:22.674Z,76507.75
2023-04-28T18:18:50.177Z,76519.91
2023-04-28T18:21:17.708Z,76528.03
2023-04-28T18:23:46.696Z,76546.28
2023-04-28T18:26:13.984Z,76560.47
2023-04-28T18:28:41.585Z,76560.47
2023-04-28T18:31:09.060Z,76556.41
2023-04-28T18:33:36.641Z,76564.50
2023-04-28T18:36:07.332Z,76564.50
2023-04-28T18:38:36.511Z,76568.56
2023-04-28T18:41:17.954Z,76580.72
2023-04-28T18:43:45.746Z,76580.72
2023-04-28T18:46:12.877Z,76588.84
2023-04-28T18:48:40.864Z,76592.91
2023-04-28T18:51:08.245Z,76592.91
2023-04-28T18:53:36.328Z,76584.78
2023-04-28T18:56:03.552Z,76592.91
2023-04-28T18:58:31.386Z,76601.00
2023-04-28T19:00:58.406Z,76596.94
2023-04-28T19:03:26.328Z,76607.09
2023-04-28T19:05:53.872Z,76613.16
2023-04-28T19:08:21.424Z,76623.31
2023-04-28T19:10:49.117Z,76621.28
2023-04-28T19:13:17.610Z,76621.28
2023-04-28T19:15:44.729Z,76633.44
2023-04-28T19:18:12.823Z,76629.38
2023-04-28T19:20:42.365Z,76637.50
2023-04-28T19:23:10.151Z,76641.53
2023-04-28T19:25:37.698Z,76649.66
2023-04-28T19:28:06.298Z,76657.75
2023-04-28T19:30:33.273Z,76657.75
2023-04-28T19:33:00.992Z,76669.94
2023-04-28T19:35:28.596Z,76673.97
2023-04-28T19:37:56.029Z,76686.13
2023-04-28T19:40:23.172Z,76686.13
2023-04-28T19:42:51.288Z,76694.25
2023-04-28T19:45:18.322Z,76698.31
2023-04-28T19:47:45.751Z,76708.44
2023-04-28T19:50:12.720Z,76710.47
2023-04-28T19:52:40.287Z,76714.53
2023-04-28T19:55:08.189Z,76722.63
2023-04-28T19:57:36.026Z,76730.75
2023-04-28T20:00:04.505Z,76734.78
2023-04-28T20:02:35.670Z,76746.97
2023-04-28T20:05:04.062Z,76751.00
2023-04-28T20:07:31.836Z,76763.16
2023-04-28T20:09:58.777Z,76767.22
2023-04-28T20:12:26.672Z,76779.38
2023-04-28T20:14:54.498Z,76783.44
2023-04-28T20:17:22.268Z,76789.53
2023-04-28T20:19:49.665Z,76797.63
2023-04-28T20:22:17.274Z,76805.75
2023-04-28T20:24:44.609Z,76811.81
2023-04-28T20:27:12.595Z,76817.91
2023-04-28T20:29:39.926Z,76819.94
2023-04-28T20:32:08.015Z,76828.03
2023-04-28T20:34:37.022Z,76836.16
2023-04-28T20:37:06.548Z,76840.22
2023-04-28T20:39:34.311Z,76852.38
2023-04-28T20:42:02.596Z,76852.38
2023-04-28T20:44:29.871Z,76856.44
2023-04-28T20:46:57.331Z,76860.47
2023-04-28T20:49:25.170Z,76864.53
2023-04-28T20:51:52.650Z,76868.59
2023-04-28T20:54:20.207Z,76872.66
2023-04-28T20:56:47.583Z,76876.69
2023-04-28T20:59:14.739Z,76876.69
2023-04-28T21:01:42.179Z,76878.72
2023-04-28T21:04:10.153Z,76884.81
2023-04-28T21:06:38.277Z,76884.81
2023-04-28T21:09:06.174Z,76884.81
2023-04-28T21:11:34.096Z,76892.91
2023-04-28T21:14:01.622Z,76896.97
2023-04-28T21:16:28.944Z,76892.91
2023-04-28T21:18:56.835Z,76905.09
2023-04-28T21:21:24.103Z,76901.03
2023-04-28T21:23:51.117Z,76917.25
2023-04-28T21:26:20.655Z,76913.19
2023-04-28T21:28:47.730Z,76917.25
2023-04-28T21:31:15.435Z,76921.31
2023-04-28T21:33:42.461Z,76933.47
2023-04-28T21:36:09.753Z,76931.44
2023-04-28T21:38:38.228Z,76929.41
2023-04-28T21:41:07.776Z,76929.41
2023-04-28T21:43:35.015Z,76939.53
2023-04-28T21:46:02.924Z,76941.56
2023-04-28T21:48:29.870Z,76945.63
2023-04-28T21:50:58.376Z,76949.69
2023-04-28T21:53:25.273Z,76947.66
2023-04-28T21:55:52.956Z,76949.69
2023-04-28T21:58:20.069Z,76957.78
2023-04-28T22:00:48.050Z,76965.91
2023-04-28T22:03:15.750Z,76974.00
2023-04-28T22:05:46.836Z,76965.91
2023-04-28T22:08:14.128Z,76974.00
2023-04-28T22:10:44.286Z,76974.00
2023-04-28T22:13:15.976Z,76990.22
2023-04-28T22:15:43.644Z,76982.13
2023-04-28T22:18:10.868Z,76986.16
2023-04-28T22:20:38.574Z,76986.16
2023-04-28T22:23:05.499Z,76998.34
2023-04-28T22:25:32.887Z,76998.34
2023-04-28T22:28:00.419Z,77002.41
2023-04-28T22:30:30.878Z,77006.44
2023-04-28T22:32:58.523Z,77010.50
2023-04-28T22:35:26.168Z,77018.63
2023-04-28T22:37:53.464Z,77018.63
2023-04-28T22:40:20.774Z,77024.69
2023-04-28T22:42:47.921Z,77030.78
2023-04-28T22:45:15.811Z,77034.84
2023-04-28T22:47:43.109Z,77034.84
2023-04-28T22:50:11.595Z,77036.84
2023-04-28T22:52:39.106Z,77038.88
2023-04-28T22:55:07.321Z,77047.00
2023-04-28T22:57:34.868Z,77047.00
2023-04-28T23:00:04.148Z,77055.09
2023-04-28T23:02:32.030Z,77063.22
2023-04-28T23:05:00.043Z,77065.25
2023-04-28T23:07:27.407Z,77061.19
2023-04-28T23:09:54.963Z,77063.22
2023-04-28T23:12:22.583Z,77065.25
2023-04-28T23:14:50.019Z,77063.22
2023-04-28T23:17:17.508Z,77067.28
2023-04-28T23:19:44.857Z,77069.28
2023-04-28T23:22:12.207Z,77071.31
2023-04-28T23:24:40.149Z,77063.22
2023-04-28T23:27:07.253Z,77067.28
2023-04-28T23:29:35.943Z,77063.22
2023-04-28T23:32:04.376Z,77075.38
2023-04-28T23:34:31.744Z,77075.38
2023-04-28T23:36:59.332Z,77075.38
2023-04-28T23:39:30.250Z,77075.38
2023-04-28T23:41:58.761Z,77079.44
2023-04-28T23:44:26.253Z,77079.44
2023-04-28T23:46:56.119Z,77083.50
2023-04-28T23:49:24.257Z,77083.50
2023-04-28T23:51:51.779Z,77085.50
2023-04-28T23:54:19.897Z,77083.50
2023-04-28T23:56:47.531Z,77089.56
2023-04-28T23:59:15.102Z,77087.53
